createdAt,value
2018-07-11T00:01:24.260Z,1.90
2018-07-11T00:03:54.103Z,2.10
2018-07-11T00:06:23.977Z,2.17
2018-07-11T00:08:52.527Z,2.53
2018-07-11T00:11:21.130Z,1.97
2018-07-11T00:13:50.070Z,2.47
2018-07-11T00:16:19.008Z,2.60
2018-07-11T00:18:47.619Z,2.10
2018-07-11T00:21:16.332Z,2.10
2018-07-11T00:23:45.084Z,2.13
2018-07-11T00:26:13.892Z,2.20
2018-07-11T00:28:42.746Z,2.30
2018-07-11T00:31:11.486Z,2.30
2018-07-11T00:33:40.270Z,2.20
2018-07-11T00:36:08.927Z,2.30
2018-07-11T00:38:37.509Z,2.23
2018-07-11T00:41:07.134Z,2.37
2018-07-11T00:43:35.933Z,2.20
2018-07-11T00:46:05.371Z,2.10
2018-07-11T00:48:34.803Z,2.23
2018-07-11T00:51:03.954Z,1.80
2018-07-11T00:53:35.270Z,2.20
2018-07-11T00:56:03.972Z,2.10
2018-07-11T00:58:37.231Z,2.40
2018-07-11T01:01:11.730Z,2.53
2018-07-11T01:03:57.479Z,2.33
2018-07-11T01:06:26.154Z,2.47
2018-07-11T01:08:56.675Z,2.50
2018-07-11T01:11:26.042Z,2.30
2018-07-11T01:13:54.995Z,2.77
2018-07-11T01:16:24.417Z,2.30
2018-07-11T01:19:04.343Z,2.97
2018-07-11T01:21:33.637Z,2.40
2018-07-11T01:24:02.302Z,2.53
2018-07-11T01:26:35.181Z,2.73
2018-07-11T01:29:04.198Z,2.53
2018-07-11T01:31:32.980Z,2.40
2018-07-11T01:34:01.911Z,2.30
2018-07-11T01:36:31.185Z,2.50
2018-07-11T01:39:00.694Z,2.60
2018-07-11T01:41:30.217Z,2.60
2018-07-11T01:43:59.078Z,2.60
2018-07-11T01:46:34.745Z,2.57
2018-07-11T01:49:03.512Z,2.67
2018-07-11T01:51:45.180Z,2.40
2018-07-11T01:54:14.093Z,2.30
2018-07-11T01:56:42.879Z,2.60
2018-07-11T01:59:11.670Z,2.97
2018-07-11T02:01:40.662Z,2.20
2018-07-11T02:04:09.448Z,2.33
2018-07-11T02:06:38.253Z,2.50
2018-07-11T02:09:07.238Z,2.60
2018-07-11T02:11:36.021Z,2.30
2018-07-11T02:14:05.737Z,2.00
2018-07-11T02:16:35.337Z,2.40
2018-07-11T02:19:04.878Z,2.40
2018-07-11T02:21:33.836Z,2.27
2018-07-11T02:24:04.305Z,2.23
2018-07-11T02:26:33.453Z,2.37
2018-07-11T02:29:02.189Z,2.80
2018-07-11T02:31:31.848Z,2.60
2018-07-11T02:34:01.260Z,2.27
2018-07-11T02:36:30.144Z,2.20
2018-07-11T02:38:58.795Z,2.33
2018-07-11T02:41:27.515Z,2.30
2018-07-11T02:43:56.401Z,2.10
2018-07-11T02:46:30.226Z,2.07
2018-07-11T02:48:59.099Z,2.53
2018-07-11T02:51:27.886Z,2.20
2018-07-11T02:53:56.673Z,1.90
2018-07-11T02:56:25.434Z,2.43
2018-07-11T02:58:54.043Z,2.20
2018-07-11T03:01:22.747Z,2.63
2018-07-11T03:03:51.516Z,1.90
2018-07-11T03:06:20.201Z,2.50
2018-07-11T03:08:48.990Z,2.10
2018-07-11T03:11:17.791Z,2.40
2018-07-11T03:13:46.565Z,2.20
2018-07-11T03:16:15.452Z,2.80
2018-07-11T03:18:44.240Z,2.10
2018-07-11T03:21:13.040Z,2.27
2018-07-11T03:23:41.826Z,2.20
2018-07-11T03:26:10.605Z,1.77
2018-07-11T03:28:39.417Z,2.13
2018-07-11T03:31:08.181Z,2.20
2018-07-11T03:33:36.957Z,1.80
2018-07-11T03:36:05.661Z,2.03
2018-07-11T03:38:34.336Z,2.30
2018-07-11T03:41:03.110Z,2.17
2018-07-11T03:43:31.880Z,1.90
2018-07-11T03:46:00.610Z,2.10
2018-07-11T03:48:29.382Z,2.30
2018-07-11T03:50:58.360Z,2.30
2018-07-11T03:53:26.971Z,2.00
2018-07-11T03:55:55.662Z,1.90
2018-07-11T03:58:24.389Z,2.20
2018-07-11T04:00:53.023Z,2.20
2018-07-11T04:03:21.801Z,1.93
2018-07-11T04:05:50.399Z,2.10
2018-07-11T04:08:19.046Z,2.10
2018-07-11T04:10:47.732Z,2.27
2018-07-11T04:13:17.172Z,2.30
2018-07-11T04:15:45.843Z,1.93
2018-07-11T04:18:29.990Z,1.90
2018-07-11T04:21:00.237Z,2.00
2018-07-11T04:23:29.306Z,2.37
2018-07-11T04:25:58.401Z,2.10
2018-07-11T04:28:28.315Z,1.97
2018-07-11T04:30:57.410Z,2.70
2018-07-11T04:33:26.650Z,2.23
2018-07-11T04:35:55.911Z,2.20
2018-07-11T04:38:25.221Z,2.23
2018-07-11T04:40:53.934Z,2.40
2018-07-11T04:43:24.038Z,2.30
2018-07-11T04:45:52.805Z,2.10
2018-07-11T04:48:21.688Z,2.10
2018-07-11T04:50:51.675Z,2.30
2018-07-11T04:53:22.846Z,2.33
2018-07-11T04:55:59.120Z,2.27
2018-07-11T04:58:28.635Z,2.10
2018-07-11T05:00:58.098Z,2.10
2018-07-11T05:03:27.419Z,2.10
2018-07-11T05:05:56.458Z,2.30
2018-07-11T05:08:26.019Z,2.33
2018-07-11T05:10:54.734Z,2.10
2018-07-11T05:13:23.901Z,2.07
2018-07-11T05:15:53.406Z,2.07
2018-07-11T05:18:22.193Z,2.13
2018-07-11T05:20:50.899Z,2.30
2018-07-11T05:23:19.563Z,2.30
2018-07-11T05:25:48.233Z,2.00
2018-07-11T05:28:17.041Z,1.77
2018-07-11T05:30:45.694Z,2.20
2018-07-11T05:33:14.388Z,2.37
2018-07-11T05:35:43.132Z,1.97
2018-07-11T05:38:11.826Z,1.90
2018-07-11T05:40:41.113Z,2.20
2018-07-11T05:43:10.028Z,2.10
2018-07-11T05:45:38.685Z,2.17
2018-07-11T05:48:07.564Z,2.30
2018-07-11T05:50:36.239Z,1.90
2018-07-11T05:53:05.527Z,2.03
2018-07-11T05:55:34.222Z,1.73
2018-07-11T05:58:02.898Z,1.90
2018-07-11T06:00:31.584Z,1.50
2018-07-11T06:03:00.373Z,2.33
2018-07-11T06:05:29.216Z,1.60
2018-07-11T06:07:57.947Z,1.80
2018-07-11T06:10:26.541Z,1.90
2018-07-11T06:12:55.216Z,2.10
2018-07-11T06:15:23.910Z,1.77
2018-07-11T06:17:52.511Z,1.57
2018-07-11T06:20:21.518Z,1.92
2018-07-11T06:22:50.266Z,1.90
2018-07-11T06:25:19.058Z,1.47
2018-07-11T06:27:47.855Z,1.70
2018-07-11T06:30:16.629Z,1.55
2018-07-11T06:32:45.298Z,1.60
2018-07-11T06:35:13.921Z,2.00
2018-07-11T06:37:42.833Z,1.60
2018-07-11T06:40:11.575Z,1.72
2018-07-11T06:42:40.313Z,1.80
2018-07-11T06:45:08.996Z,1.47
2018-07-11T06:47:37.731Z,1.82
2018-07-11T06:50:06.417Z,1.75
2018-07-11T06:52:35.105Z,1.45
2018-07-11T06:55:03.874Z,1.70
2018-07-11T06:57:32.539Z,1.60
2018-07-11T07:00:01.261Z,1.50
2018-07-11T07:02:29.944Z,1.87
2018-07-11T07:04:58.736Z,1.92
2018-07-11T07:07:27.318Z,1.50
2018-07-11T07:09:56.718Z,1.30
2018-07-11T07:12:25.506Z,1.70
2018-07-11T07:14:54.193Z,2.00
2018-07-11T07:17:22.874Z,1.42
2018-07-11T07:19:51.664Z,1.60
2018-07-11T07:22:20.246Z,1.40
2018-07-11T07:24:48.843Z,1.67
2018-07-11T07:27:17.515Z,1.27
2018-07-11T07:29:46.097Z,1.77
2018-07-11T07:32:16.233Z,1.40
2018-07-11T07:34:45.073Z,1.40
2018-07-11T07:37:13.692Z,1.45
2018-07-11T07:39:42.478Z,1.47
2018-07-11T07:42:11.101Z,1.57
2018-07-11T07:44:39.810Z,1.45
2018-07-11T07:47:12.818Z,1.72
2018-07-11T07:49:42.011Z,1.50
2018-07-11T07:52:10.717Z,1.50
2018-07-11T07:54:39.430Z,1.35
2018-07-11T07:57:08.194Z,1.30
2018-07-11T07:59:36.927Z,1.25
2018-07-11T08:02:05.685Z,1.40
2018-07-11T08:04:34.349Z,1.45
2018-07-11T08:07:03.327Z,1.37
2018-07-11T08:09:32.025Z,1.30
2018-07-11T08:12:00.711Z,1.30
2018-07-11T08:14:29.396Z,1.30
2018-07-11T08:16:58.308Z,1.22
2018-07-11T08:19:27.074Z,1.20
2018-07-11T08:21:55.866Z,1.62
2018-07-11T08:24:35.798Z,1.52
2018-07-11T08:27:19.139Z,1.65
2018-07-11T08:29:56.763Z,1.20
2018-07-11T08:34:43.343Z,1.20
2018-07-11T08:38:57.850Z,1.40
2018-07-11T08:41:38.267Z,1.20
2018-07-11T08:44:20.161Z,1.27
2018-07-11T08:47:58.819Z,1.22
2018-07-11T08:54:50.332Z,1.47
2018-07-11T08:57:36.791Z,1.37
2018-07-11T09:00:14.390Z,1.45
2018-07-11T09:02:54.835Z,1.95
2018-07-11T09:07:40.080Z,2.00
2018-07-11T09:12:28.130Z,1.87
2018-07-11T09:17:16.281Z,2.00
2018-07-11T09:20:53.989Z,1.95
2018-07-11T09:25:34.380Z,1.98
2018-07-11T09:28:02.998Z,2.60
2018-07-11T09:30:31.760Z,1.80
2018-07-11T09:33:00.415Z,2.00
2018-07-11T09:35:29.200Z,1.92
2018-07-11T09:37:57.886Z,2.30
2018-07-11T09:40:26.398Z,2.40
2018-07-11T09:42:55.007Z,2.30
2018-07-11T09:45:23.714Z,2.08
2018-07-11T09:47:52.339Z,2.10
2018-07-11T09:50:21.108Z,2.30
2018-07-11T09:52:49.752Z,2.50
2018-07-11T09:55:19.808Z,2.35
2018-07-11T09:57:48.403Z,2.00
2018-07-11T10:00:22.324Z,2.02
2018-07-11T10:02:51.088Z,2.08
2018-07-11T10:05:20.798Z,2.35
2018-07-11T10:07:49.790Z,2.30
2018-07-11T10:10:18.315Z,2.00
2018-07-11T10:12:47.001Z,2.10
2018-07-11T10:15:15.640Z,2.00
2018-07-11T10:17:44.285Z,1.72
2018-07-11T10:20:12.841Z,1.75
2018-07-11T10:22:41.593Z,2.30
2018-07-11T10:25:10.239Z,1.82
2018-07-11T10:27:40.715Z,1.92
2018-07-11T10:30:09.379Z,2.17
2018-07-11T10:32:39.353Z,2.67
2018-07-11T10:35:07.930Z,1.82
2018-07-11T10:37:37.701Z,1.90
2018-07-11T10:40:06.282Z,2.08
2018-07-11T10:42:34.915Z,2.10
2018-07-11T10:45:03.462Z,1.90
2018-07-11T10:47:32.483Z,1.85
2018-07-11T10:50:01.069Z,2.10
2018-07-11T10:52:29.711Z,1.80
2018-07-11T10:54:58.351Z,2.30
2018-07-11T10:57:26.938Z,1.95
2018-07-11T10:59:57.714Z,1.82
2018-07-11T11:02:26.400Z,2.05
2018-07-11T11:04:55.734Z,1.95
2018-07-11T11:07:24.384Z,2.12
2018-07-11T11:09:53.144Z,1.82
2018-07-11T11:12:21.752Z,1.70
2018-07-11T11:14:50.442Z,1.77
2018-07-11T11:17:19.125Z,2.30
2018-07-11T11:19:47.914Z,1.67
2018-07-11T11:22:16.474Z,1.80
2018-07-11T11:24:45.284Z,1.98
2018-07-11T11:27:13.863Z,2.25
2018-07-11T11:29:42.391Z,1.60
2018-07-11T11:32:11.132Z,1.72
2018-07-11T11:34:39.737Z,1.90
2018-07-11T11:37:08.351Z,1.87
2018-07-11T11:39:36.972Z,1.80
2018-07-11T11:42:05.648Z,2.10
2018-07-11T11:44:34.411Z,2.08
2018-07-11T11:47:03.382Z,2.22
2018-07-11T11:49:32.483Z,1.80
2018-07-11T11:52:01.334Z,1.90
2018-07-11T11:54:30.221Z,1.75
2018-07-11T11:56:58.908Z,2.15
2018-07-11T11:59:27.597Z,1.82
2018-07-11T12:01:56.277Z,1.90
2018-07-11T12:04:24.962Z,1.80
2018-07-11T12:06:53.647Z,1.72
2018-07-11T12:09:22.159Z,1.75
2018-07-11T12:11:50.687Z,1.57
2018-07-11T12:14:19.473Z,1.70
2018-07-11T12:16:48.818Z,2.10
2018-07-11T12:19:18.204Z,1.52
2018-07-11T12:21:46.986Z,1.60
2018-07-11T12:24:15.776Z,1.50
2018-07-11T12:26:44.820Z,1.60
2018-07-11T12:29:13.457Z,2.05
2018-07-11T12:31:42.591Z,1.27
2018-07-11T12:34:11.233Z,1.52
2018-07-11T12:36:40.126Z,1.35
2018-07-11T12:39:08.750Z,1.37
2018-07-11T12:41:37.699Z,1.60
2018-07-11T12:44:06.384Z,1.72
2018-07-11T12:46:35.519Z,1.32
2018-07-11T12:49:06.255Z,1.55
2018-07-11T12:51:35.354Z,1.57
2018-07-11T12:54:04.811Z,1.55
2018-07-11T12:56:33.495Z,1.55
2018-07-11T12:59:02.078Z,1.42
2018-07-11T13:01:30.667Z,1.62
2018-07-11T13:03:59.961Z,1.30
2018-07-11T13:06:30.041Z,1.50
2018-07-11T13:08:58.767Z,1.65
2018-07-11T13:11:27.407Z,1.72
2018-07-11T13:13:56.038Z,1.67
2018-07-11T13:16:24.795Z,1.50
2018-07-11T13:18:53.404Z,1.57
2018-07-11T13:21:22.680Z,1.67
2018-07-11T13:23:51.290Z,1.90
2018-07-11T13:26:20.178Z,1.70
2018-07-11T13:28:48.719Z,2.10
2018-07-11T13:31:17.446Z,1.90
2018-07-11T13:33:46.039Z,1.90
2018-07-11T13:36:14.615Z,1.80
2018-07-11T13:38:43.250Z,1.62
2018-07-11T13:41:11.947Z,1.85
2018-07-11T13:43:40.511Z,2.10
2018-07-11T13:46:09.263Z,1.98
2018-07-11T13:48:37.978Z,2.00
2018-07-11T13:51:06.627Z,1.87
2018-07-11T13:53:35.264Z,1.95
2018-07-11T13:56:04.506Z,2.10
2018-07-11T13:58:34.295Z,2.00
2018-07-11T14:01:03.617Z,2.00
2018-07-11T14:03:32.406Z,2.12
2018-07-11T14:06:00.971Z,2.47
2018-07-11T14:08:30.286Z,1.95
2018-07-11T14:10:58.972Z,2.12
2018-07-11T14:13:27.658Z,2.37
2018-07-11T14:15:56.445Z,2.00
2018-07-11T14:18:25.643Z,2.10
2018-07-11T14:20:54.329Z,2.35
2018-07-11T14:23:34.131Z,2.00
2018-07-11T14:26:03.230Z,2.00
2018-07-11T14:28:32.824Z,2.10
2018-07-11T14:31:02.548Z,1.98
2018-07-11T14:33:33.180Z,2.20
2018-07-11T14:36:02.272Z,1.85
2018-07-11T14:38:31.612Z,1.98
2018-07-11T14:41:02.919Z,2.12
2018-07-11T14:43:32.052Z,2.12
2018-07-11T14:46:00.840Z,2.15
2018-07-11T14:48:31.025Z,2.00
2018-07-11T14:51:00.835Z,2.50
2018-07-11T14:53:29.859Z,2.05
2018-07-11T14:55:58.654Z,1.77
2018-07-11T14:58:27.549Z,2.10
2018-07-11T15:00:56.331Z,1.98
2018-07-11T15:03:25.010Z,2.05
2018-07-11T15:05:53.692Z,1.92
2018-07-11T15:08:22.408Z,2.33
2018-07-11T15:10:51.054Z,2.10
2018-07-11T15:13:19.860Z,1.90
2018-07-11T15:15:48.545Z,2.20
2018-07-11T15:18:17.167Z,2.17
2018-07-11T15:20:45.916Z,1.98
2018-07-11T15:23:14.515Z,2.02
2018-07-11T15:25:43.304Z,1.70
2018-07-11T15:28:11.972Z,1.87
2018-07-11T15:30:43.934Z,1.82
2018-07-11T15:33:12.535Z,1.82
2018-07-11T15:35:41.304Z,1.70
2018-07-11T15:38:09.990Z,1.75
2018-07-11T15:40:39.236Z,1.80
2018-07-11T15:43:07.872Z,1.82
2018-07-11T15:45:36.423Z,1.72
2018-07-11T15:48:05.176Z,1.60
2018-07-11T15:50:34.076Z,2.15
2018-07-11T15:53:02.799Z,1.87
2018-07-11T15:55:32.689Z,1.87
2018-07-11T15:58:07.345Z,2.10
2018-07-11T16:00:38.419Z,1.82
2018-07-11T16:03:07.227Z,1.50
2018-07-11T16:05:40.482Z,1.60
2018-07-11T16:08:12.359Z,1.52
2018-07-11T16:10:47.761Z,1.47
2018-07-11T16:13:20.017Z,1.20
2018-07-11T16:15:48.619Z,1.55
2018-07-11T16:18:17.502Z,1.60
2018-07-11T16:20:46.206Z,1.20
2018-07-11T16:23:15.226Z,1.70
2018-07-11T16:25:44.605Z,1.40
2018-07-11T16:28:13.350Z,2.05
2018-07-11T16:30:42.038Z,1.55
2018-07-11T16:33:10.686Z,1.40
2018-07-11T16:35:39.375Z,1.70
2018-07-11T16:38:08.033Z,1.67
2018-07-11T16:40:36.648Z,2.00
2018-07-11T16:43:06.476Z,2.35
2018-07-11T16:45:35.172Z,1.80
2018-07-11T16:48:03.948Z,1.47
2018-07-11T16:50:32.531Z,1.72
2018-07-11T16:53:01.325Z,1.70
2018-07-11T16:55:30.927Z,1.47
2018-07-11T16:57:59.562Z,1.60
2018-07-11T17:00:32.215Z,1.85
2018-07-11T17:03:06.510Z,1.80
2018-07-11T17:06:09.906Z,1.85
2018-07-11T17:08:43.966Z,2.05
2018-07-11T17:11:16.850Z,1.80
2018-07-11T17:13:55.667Z,1.77
2018-07-11T17:16:30.712Z,1.70
2018-07-11T17:19:09.611Z,2.00
2018-07-11T17:21:43.025Z,1.67
2018-07-11T17:24:13.447Z,1.45
2018-07-11T17:26:43.578Z,1.62
2018-07-11T17:29:20.474Z,1.82
2018-07-11T17:31:51.385Z,1.60
2018-07-11T17:34:20.087Z,1.55
2018-07-11T17:36:51.043Z,1.60
2018-07-11T17:39:20.184Z,1.60
2018-07-11T17:41:48.779Z,1.80
2018-07-11T17:44:19.003Z,1.60
2018-07-11T17:46:47.804Z,1.45
2018-07-11T17:49:25.718Z,1.55
2018-07-11T17:52:01.093Z,1.90
2018-07-11T17:55:20.007Z,1.60
2018-07-11T17:57:54.182Z,1.80
2018-07-11T18:01:47.620Z,1.60
2018-07-11T18:04:57.267Z,1.87
2018-07-11T18:07:36.270Z,1.87
2018-07-11T18:10:09.447Z,1.67
2018-07-11T18:12:57.242Z,1.70
2018-07-11T18:15:33.877Z,1.50
2018-07-11T18:19:20.199Z,1.75
2018-07-11T18:22:04.594Z,2.10
2018-07-11T18:24:43.993Z,1.70
2018-07-11T18:27:22.423Z,1.70
2018-07-11T18:31:00.742Z,1.50
2018-07-11T18:33:44.120Z,1.50
2018-07-11T18:38:25.402Z,1.82
2018-07-11T18:41:03.619Z,1.77
2018-07-11T18:44:43.473Z,1.60
2018-07-11T18:47:23.769Z,1.67
2018-07-11T18:52:10.003Z,1.60
2018-07-11T18:56:50.868Z,1.40
2018-07-11T18:59:31.331Z,1.62
2018-07-11T19:02:05.909Z,1.72
2018-07-11T19:04:49.431Z,1.65
2018-07-11T19:07:38.982Z,1.87
2018-07-11T19:10:07.806Z,1.75
2018-07-11T19:12:52.228Z,1.80
2018-07-11T19:15:32.824Z,1.67
2018-07-11T19:18:10.931Z,1.62
2018-07-11T19:20:45.468Z,1.92
2018-07-11T19:23:25.199Z,1.70
2018-07-11T19:27:00.238Z,1.70
2018-07-11T19:30:15.994Z,1.80
2018-07-11T19:33:05.982Z,1.87
2018-07-11T19:35:45.755Z,1.60
2018-07-11T19:38:37.164Z,1.98
2018-07-11T19:41:28.419Z,2.10
2018-07-11T19:46:20.843Z,1.72
2018-07-11T19:49:00.740Z,1.90
2018-07-11T19:51:39.243Z,1.72
2018-07-11T19:54:16.092Z,1.90
2018-07-11T19:56:46.614Z,1.65
2018-07-11T19:59:16.362Z,1.70
2018-07-11T20:01:46.644Z,1.70
2018-07-11T20:04:16.051Z,2.02
2018-07-11T20:06:45.345Z,1.85
2018-07-11T20:09:14.133Z,1.70
2018-07-11T20:11:42.886Z,1.60
2018-07-11T20:14:11.476Z,2.05
2018-07-11T20:16:40.159Z,1.62
2018-07-11T20:19:09.591Z,1.50
2018-07-11T20:21:38.836Z,2.05
2018-07-11T20:24:07.453Z,1.98
2018-07-11T20:26:36.084Z,1.90
2018-07-11T20:29:04.950Z,1.92
2018-07-11T20:31:33.735Z,2.00
2018-07-11T20:34:02.419Z,1.92
2018-07-11T20:36:31.003Z,1.70
2018-07-11T20:38:59.655Z,1.90
2018-07-11T20:41:28.579Z,2.08
2018-07-11T20:43:57.235Z,1.55
2018-07-11T20:46:26.476Z,2.02
2018-07-11T20:48:55.353Z,2.15
2018-07-11T20:51:23.855Z,2.08
2018-07-11T20:53:52.504Z,2.00
2018-07-11T20:56:21.100Z,2.00
2018-07-11T20:59:00.860Z,2.02
2018-07-11T21:01:40.693Z,2.00
2018-07-11T21:04:21.207Z,2.02
2018-07-11T21:07:00.927Z,1.27
2018-07-11T21:10:39.645Z,1.95
2018-07-11T21:13:19.461Z,1.82
2018-07-11T21:18:01.225Z,1.87
2018-07-11T21:20:29.859Z,1.73
2018-07-11T21:22:58.463Z,1.70
2018-07-11T21:25:27.131Z,2.00
2018-07-11T21:27:55.812Z,1.67
2018-07-11T21:30:24.543Z,1.73
2018-07-11T21:32:53.100Z,1.70
2018-07-11T21:35:21.663Z,2.10
2018-07-11T21:37:50.246Z,1.53
2018-07-11T21:40:18.886Z,1.77
2018-07-11T21:42:47.515Z,1.80
2018-07-11T21:45:16.650Z,1.73
2018-07-11T21:47:45.239Z,1.47
2018-07-11T21:50:13.878Z,1.60
2018-07-11T21:52:42.489Z,1.80
2018-07-11T21:55:11.134Z,1.60
2018-07-11T21:57:40.032Z,1.87
2018-07-11T22:00:08.773Z,1.83
2018-07-11T22:02:37.257Z,1.60
2018-07-11T22:05:05.855Z,1.57
2018-07-11T22:07:34.470Z,1.67
2018-07-11T22:10:03.258Z,1.70
2018-07-11T22:12:32.620Z,1.70
2018-07-11T22:15:01.199Z,1.80
2018-07-11T22:17:40.989Z,1.47
2018-07-11T22:20:08.341Z,1.53
2018-07-11T22:22:35.798Z,1.67
2018-07-11T22:25:03.150Z,1.50
2018-07-11T22:27:30.535Z,1.77
2018-07-11T22:29:57.863Z,1.80
2018-07-11T22:32:25.159Z,1.70
2018-07-11T22:34:52.506Z,1.70
2018-07-11T22:37:19.819Z,1.90
2018-07-11T22:39:47.094Z,1.50
2018-07-11T22:42:14.527Z,1.80
2018-07-11T22:44:41.883Z,2.00
2018-07-11T22:47:09.159Z,1.80
2018-07-11T22:49:40.595Z,2.00
2018-07-11T22:52:07.869Z,1.90
2018-07-11T22:54:35.291Z,1.93
2018-07-11T22:57:02.593Z,1.93
2018-07-11T22:59:29.904Z,2.07
2018-07-11T23:01:57.206Z,1.70
2018-07-11T23:04:24.489Z,1.87
2018-07-11T23:06:51.857Z,2.07
2018-07-11T23:09:19.127Z,1.93
2018-07-11T23:11:46.565Z,1.77
2018-07-11T23:14:13.919Z,2.00
2018-07-11T23:16:41.887Z,1.90
2018-07-11T23:19:09.156Z,2.00
2018-07-11T23:21:36.701Z,1.80
2018-07-11T23:24:04.976Z,1.97
2018-07-11T23:26:32.328Z,2.20
2018-07-11T23:28:59.785Z,1.80
2018-07-11T23:31:27.063Z,1.80
2018-07-11T23:33:54.494Z,1.90
2018-07-11T23:36:21.763Z,1.90
2018-07-11T23:38:49.203Z,1.90
2018-07-11T23:43:47.654Z,1.67
2018-07-11T23:46:15.053Z,1.70
2018-07-11T23:48:42.407Z,1.83
2018-07-11T23:51:09.761Z,1.93
2018-07-11T23:53:37.117Z,1.87
2018-07-11T23:56:04.469Z,1.80
2018-07-11T23:58:31.823Z,1.70
